Time;durP1;ratioP1;P1;durP2;ratioP2;P2;SDS_P1;SDS_P2;PMS_P1;PMS_P2;Temp;Humidity;BMP_temperature;BMP_pressure;BME280_temperature;BME280_humidity;BME280_pressure;Samples;Min_cycle;Max_cycle;Signal;HPM_P1;HPM_P2
2021/11/19 00:00:24;;;;;;;16.13;8.73;;;;;;;;;;5016902;28;20488;-80
2021/11/19 00:02:51;;;;;;;21.20;9.87;;;;;;;;;;5032480;28;20982;-79
2021/11/19 00:05:19;;;;;;;21.57;9.60;;;;;;;;;;5028946;28;20463;-79
2021/11/19 00:07:46;;;;;;;17.37;9.23;;;;;;;;;;5017427;28;20462;-79
2021/11/19 00:10:15;;;;;;;16.20;10.33;;;;;;;;;;5036561;28;20466;-79
2021/11/19 00:12:43;;;;;;;14.80;9.33;;;;;;;;;;5044157;28;20455;-80
2021/11/19 00:15:11;;;;;;;19.70;9.07;;;;;;;;;;5053480;28;20437;-78
2021/11/19 00:17:39;;;;;;;14.73;8.97;;;;;;;;;;5030996;28;20471;-80
2021/11/19 00:20:08;;;;;;;17.63;8.30;;;;;;;;;;5012806;28;20479;-78
2021/11/19 00:22:36;;;;;;;14.10;8.20;;;;;;;;;;5017254;28;20478;-81
2021/11/19 00:25:04;;;;;;;12.77;7.40;;;;;;;;;;5018783;28;20462;-79
2021/11/19 00:27:34;;;;;;;14.60;7.63;;;;;;;;;;5013900;28;20463;-79
2021/11/19 00:30:02;;;;;;;18.53;9.27;;;;;;;;;;5015873;28;20443;-79
2021/11/19 00:32:29;;;;;;;16.37;10.23;;;;;;;;;;5029757;28;20485;-82
2021/11/19 00:34:56;;;;;;;15.83;9.37;;;;;;;;;;5035585;28;20947;-81
2021/11/19 00:37:24;;;;;;;18.00;9.10;;;;;;;;;;5033057;28;20444;-81
2021/11/19 00:39:51;;;;;;;16.67;9.70;;;;;;;;;;5016868;28;20466;-81
2021/11/19 00:42:19;;;;;;;13.40;9.07;;;;;;;;;;5013485;28;20990;-81
2021/11/19 00:44:47;;;;;;;16.77;8.63;;;;;;;;;;5016438;28;20470;-81
2021/11/19 00:47:15;;;;;;;14.30;8.77;;;;;;;;;;5034524;28;20442;-80
2021/11/19 00:49:43;;;;;;;13.53;8.77;;;;;;;;;;5032333;28;20541;-81
2021/11/19 00:52:12;;;;;;;16.63;9.30;;;;;;;;;;5017853;28;20477;-80
2021/11/19 00:54:39;;;;;;;14.73;9.20;;;;;;;;;;5022502;28;20452;-80
2021/11/19 00:57:08;;;;;;;15.03;10.17;;;;;;;;;;5044399;28;20445;-81
2021/11/19 00:59:36;;;;;;;14.53;9.33;;;;;;;;;;5052886;28;20465;-81
2021/11/19 01:02:06;;;;;;;12.60;8.83;;;;;;;;;;5022223;28;20520;-80
2021/11/19 01:05:02;;;;;;;16.77;9.07;;;;;;;;;;5023688;28;20835;-80
2021/11/19 01:07:30;;;;;;;15.20;8.63;;;;;;;;;;5024136;28;20471;-81
2021/11/19 01:09:59;;;;;;;15.90;8.60;;;;;;;;;;5039690;28;20437;-79
2021/11/19 01:12:28;;;;;;;13.30;8.83;;;;;;;;;;5005224;28;20932;-79
2021/11/19 01:14:56;;;;;;;15.60;8.60;;;;;;;;;;5009605;28;21042;-79
2021/11/19 01:17:26;;;;;;;16.80;9.50;;;;;;;;;;5010799;28;20465;-79
2021/11/19 01:19:55;;;;;;;14.67;8.43;;;;;;;;;;5012393;28;20474;-82
2021/11/19 01:22:24;;;;;;;14.83;9.00;;;;;;;;;;5028688;28;20481;-78
2021/11/19 01:24:51;;;;;;;15.97;10.00;;;;;;;;;;5034407;28;20803;-78
2021/11/19 01:27:19;;;;;;;17.17;9.23;;;;;;;;;;5016369;28;20459;-83
2021/11/19 01:29:47;;;;;;;12.47;9.47;;;;;;;;;;5025485;28;20457;-80
2021/11/19 01:32:16;;;;;;;18.10;9.90;;;;;;;;;;5022215;28;20441;-79
2021/11/19 01:34:44;;;;;;;12.57;9.27;;;;;;;;;;5000081;28;20478;-78
2021/11/19 01:37:28;;;;;;;13.93;9.60;;;;;;;;;;5011185;28;20880;-79
2021/11/19 01:39:55;;;;;;;15.30;9.80;;;;;;;;;;5009470;28;20466;-78
2021/11/19 01:42:24;;;;;;;21.30;10.77;;;;;;;;;;5010327;28;20514;-79
2021/11/19 01:44:56;;;;;;;18.90;10.40;;;;;;;;;;5013051;28;20469;-80
2021/11/19 01:47:24;;;;;;;16.33;10.17;;;;;;;;;;5032403;28;20452;-78
2021/11/19 01:49:52;;;;;;;15.43;11.30;;;;;;;;;;5034297;28;20438;-79
2021/11/19 01:52:21;;;;;;;16.50;11.00;;;;;;;;;;5037691;28;20537;-79
2021/11/19 01:54:51;;;;;;;17.00;11.23;;;;;;;;;;5038458;28;20826;-79
2021/11/19 01:57:21;;;;;;;18.23;11.07;;;;;;;;;;5033684;28;20449;-80
2021/11/19 01:59:50;;;;;;;18.77;11.53;;;;;;;;;;5033690;28;20802;-78
2021/11/19 02:02:19;;;;;;;16.90;12.83;;;;;;;;;;5033321;28;20485;-78
2021/11/19 02:04:48;;;;;;;21.30;13.27;;;;;;;;;;5048846;28;20441;-79
2021/11/19 02:07:19;;;;;;;18.40;12.07;;;;;;;;;;5017803;28;20430;-78
2021/11/19 02:09:54;;;;;;;25.03;12.30;;;;;;;;;;5039453;28;20782;-79
2021/11/19 02:12:27;;;;;;;21.20;11.70;;;;;;;;;;5048880;28;20452;-78
2021/11/19 02:15:09;;;;;;;24.13;13.23;;;;;;;;;;5032863;28;20443;-79
2021/11/19 02:17:36;;;;;;;22.10;12.90;;;;;;;;;;5022317;28;20458;-81
2021/11/19 02:20:06;;;;;;;18.77;13.27;;;;;;;;;;5011717;28;20443;-81
2021/11/19 02:22:37;;;;;;;20.27;13.40;;;;;;;;;;5029972;28;20979;-82
2021/11/19 02:25:12;;;;;;;22.80;13.80;;;;;;;;;;5017553;28;20461;-79
2021/11/19 02:27:41;;;;;;;22.83;13.40;;;;;;;;;;5034204;28;20438;-81
2021/11/19 02:30:11;;;;;;;24.40;12.10;;;;;;;;;;5012730;28;20442;-79
2021/11/19 02:32:43;;;;;;;19.63;12.93;;;;;;;;;;5010532;28;20504;-82
2021/11/19 02:35:11;;;;;;;19.07;12.07;;;;;;;;;;4993012;28;20477;-80
2021/11/19 02:37:41;;;;;;;19.53;12.97;;;;;;;;;;4995230;28;20467;-82
2021/11/19 02:40:10;;;;;;;17.23;11.80;;;;;;;;;;5021141;28;20802;-80
2021/11/19 02:42:40;;;;;;;19.00;11.97;;;;;;;;;;5022122;28;20499;-81
2021/11/19 02:45:10;;;;;;;21.67;12.50;;;;;;;;;;4994020;28;20963;-80
2021/11/19 02:47:37;;;;;;;19.20;11.53;;;;;;;;;;5010502;28;20451;-79
2021/11/19 02:50:04;;;;;;;23.57;12.40;;;;;;;;;;5011335;28;20457;-77
2021/11/19 02:52:33;;;;;;;17.37;11.80;;;;;;;;;;4997758;28;20477;-81
2021/11/19 02:55:03;;;;;;;16.67;11.33;;;;;;;;;;5020052;28;20451;-80
2021/11/19 02:57:30;;;;;;;13.93;11.03;;;;;;;;;;5024636;28;20942;-79
2021/11/19 02:59:58;;;;;;;19.90;12.23;;;;;;;;;;5050119;28;20452;-82
2021/11/19 03:02:26;;;;;;;17.10;11.10;;;;;;;;;;5024567;28;20482;-79
2021/11/19 03:04:55;;;;;;;23.60;10.40;;;;;;;;;;5030885;28;20456;-81
2021/11/19 03:07:23;;;;;;;17.97;12.07;;;;;;;;;;5012534;28;20461;-78
2021/11/19 03:09:50;;;;;;;16.57;10.30;;;;;;;;;;5033741;28;20465;-80
2021/11/19 03:12:20;;;;;;;18.23;11.00;;;;;;;;;;5040588;28;20453;-78
2021/11/19 03:14:48;;;;;;;18.47;11.40;;;;;;;;;;5032535;28;20445;-77
2021/11/19 03:17:16;;;;;;;13.50;11.20;;;;;;;;;;5047124;28;20437;-79
2021/11/19 03:19:44;;;;;;;18.27;11.77;;;;;;;;;;5009920;28;20461;-79
2021/11/19 03:22:13;;;;;;;14.20;10.33;;;;;;;;;;5013405;28;20496;-79
2021/11/19 03:24:40;;;;;;;18.07;10.80;;;;;;;;;;5035376;28;20438;-80
2021/11/19 03:27:08;;;;;;;17.50;11.00;;;;;;;;;;5022656;28;20457;-80
2021/11/19 03:29:36;;;;;;;18.47;11.53;;;;;;;;;;5033708;28;20449;-80
2021/11/19 03:32:04;;;;;;;16.90;11.40;;;;;;;;;;5054063;28;20453;-78
2021/11/19 03:34:31;;;;;;;18.17;10.47;;;;;;;;;;5053793;28;20448;-79
2021/11/19 03:36:58;;;;;;;11.33;8.93;;;;;;;;;;5053836;28;20448;-80
2021/11/19 03:39:27;;;;;;;16.70;9.60;;;;;;;;;;5012748;28;20458;-79
2021/11/19 03:41:56;;;;;;;13.53;9.30;;;;;;;;;;5041501;28;20481;-79
2021/11/19 03:44:24;;;;;;;12.60;10.20;;;;;;;;;;5037609;28;20970;-83
2021/11/19 03:46:54;;;;;;;12.33;10.10;;;;;;;;;;5016699;28;21135;-79
2021/11/19 03:49:21;;;;;;;16.03;8.60;;;;;;;;;;5033605;28;20441;-79
2021/11/19 03:51:50;;;;;;;15.03;9.83;;;;;;;;;;5033071;28;20817;-78
2021/11/19 03:54:19;;;;;;;11.20;8.13;;;;;;;;;;5034040;28;20458;-79
2021/11/19 03:56:46;;;;;;;13.03;9.60;;;;;;;;;;5019534;28;20452;-80
2021/11/19 03:59:14;;;;;;;13.73;8.97;;;;;;;;;;5041334;28;20547;-81
2021/11/19 04:01:43;;;;;;;13.27;8.50;;;;;;;;;;5021289;28;20844;-81
2021/11/19 04:04:12;;;;;;;13.83;8.90;;;;;;;;;;5012240;28;20545;-80
2021/11/19 04:06:40;;;;;;;12.07;8.63;;;;;;;;;;5013178;28;20443;-79
2021/11/19 04:09:08;;;;;;;10.67;9.03;;;;;;;;;;5012991;28;20447;-80
2021/11/19 04:11:35;;;;;;;13.30;9.33;;;;;;;;;;5030555;28;21061;-78
2021/11/19 04:14:02;;;;;;;12.23;8.90;;;;;;;;;;5039910;28;20461;-81
2021/11/19 04:16:31;;;;;;;10.53;9.43;;;;;;;;;;5038259;28;20438;-79
2021/11/19 04:18:59;;;;;;;12.30;9.17;;;;;;;;;;5033375;28;20442;-79
2021/11/19 04:21:28;;;;;;;18.50;9.87;;;;;;;;;;5033301;28;21169;-81
2021/11/19 04:23:55;;;;;;;13.17;8.77;;;;;;;;;;4998518;28;20554;-79
2021/11/19 04:26:23;;;;;;;11.53;8.70;;;;;;;;;;5020252;28;20465;-79
2021/11/19 04:28:51;;;;;;;11.43;8.57;;;;;;;;;;5035249;28;20442;-80
2021/11/19 04:31:19;;;;;;;12.57;8.20;;;;;;;;;;5019922;28;21042;-81
2021/11/19 04:33:46;;;;;;;8.87;7.60;;;;;;;;;;5016364;28;20566;-80
2021/11/19 04:36:13;;;;;;;13.37;8.47;;;;;;;;;;5039103;28;20458;-79
2021/11/19 04:38:42;;;;;;;10.70;7.90;;;;;;;;;;5035277;28;20458;-79
2021/11/19 04:41:10;;;;;;;12.77;8.97;;;;;;;;;;5017999;28;20484;-80
2021/11/19 04:43:38;;;;;;;12.60;8.50;;;;;;;;;;5004954;28;20462;-79
2021/11/19 04:46:09;;;;;;;10.77;8.07;;;;;;;;;;5013368;28;20447;-78
2021/11/19 04:48:36;;;;;;;11.07;8.20;;;;;;;;;;5021061;28;20557;-79
2021/11/19 04:51:05;;;;;;;9.77;7.40;;;;;;;;;;5035030;28;20470;-79
2021/11/19 04:53:32;;;;;;;14.20;8.40;;;;;;;;;;5034986;28;20470;-81
2021/11/19 04:56:02;;;;;;;9.90;7.50;;;;;;;;;;5035813;28;20450;-77
2021/11/19 04:58:29;;;;;;;9.43;8.13;;;;;;;;;;5040468;28;20938;-78
2021/11/19 05:00:58;;;;;;;10.10;8.20;;;;;;;;;;5028098;28;20960;-78
2021/11/19 05:03:26;;;;;;;12.73;8.20;;;;;;;;;;5043071;28;20518;-78
2021/11/19 05:05:55;;;;;;;9.47;7.90;;;;;;;;;;4997037;28;20478;-79
2021/11/19 05:08:22;;;;;;;11.33;8.30;;;;;;;;;;5012277;28;20458;-80
2021/11/19 05:10:52;;;;;;;10.90;8.13;;;;;;;;;;5014644;28;20466;-78
2021/11/19 05:13:21;;;;;;;10.63;8.10;;;;;;;;;;5025877;28;20548;-78
2021/11/19 05:15:50;;;;;;;12.40;8.67;;;;;;;;;;5040329;28;20445;-79
2021/11/19 05:18:18;;;;;;;9.17;7.47;;;;;;;;;;5050793;28;20483;-78
2021/11/19 05:20:45;;;;;;;11.13;8.63;;;;;;;;;;5050445;28;20807;-79
2021/11/19 05:23:12;;;;;;;13.47;9.30;;;;;;;;;;5051398;28;20481;-79
2021/11/19 05:25:41;;;;;;;11.47;8.67;;;;;;;;;;5052470;28;20811;-79
2021/11/19 05:28:08;;;;;;;10.23;8.20;;;;;;;;;;5021105;28;20952;-78
2021/11/19 05:30:39;;;;;;;9.27;7.80;;;;;;;;;;5013759;28;20454;-81
2021/11/19 05:33:07;;;;;;;10.07;8.10;;;;;;;;;;5013265;28;20443;-79
2021/11/19 05:35:34;;;;;;;11.43;9.10;;;;;;;;;;5028196;28;20445;-78
2021/11/19 05:38:01;;;;;;;11.50;8.80;;;;;;;;;;5035832;28;20956;-80
2021/11/19 05:40:29;;;;;;;12.63;9.40;;;;;;;;;;5024484;28;20459;-78
2021/11/19 05:42:57;;;;;;;12.37;9.50;;;;;;;;;;5010005;28;20850;-78
2021/11/19 05:45:26;;;;;;;10.23;8.57;;;;;;;;;;5024150;28;20472;-77
2021/11/19 05:47:54;;;;;;;12.50;9.00;;;;;;;;;;5012320;28;20461;-77
2021/11/19 05:50:23;;;;;;;11.50;8.70;;;;;;;;;;5035385;28;20450;-77
2021/11/19 05:52:52;;;;;;;12.53;9.10;;;;;;;;;;5021465;28;20462;-78
2021/11/19 05:55:20;;;;;;;11.87;8.40;;;;;;;;;;5048741;28;20450;-79
2021/11/19 05:57:48;;;;;;;13.00;9.83;;;;;;;;;;5033087;28;20441;-77
2021/11/19 06:00:17;;;;;;;14.70;9.73;;;;;;;;;;5051868;28;20449;-78
2021/11/19 06:02:44;;;;;;;15.10;10.23;;;;;;;;;;5001507;28;20494;-79
2021/11/19 06:05:13;;;;;;;16.50;11.53;;;;;;;;;;5009528;28;20466;-78
2021/11/19 06:07:40;;;;;;;12.63;9.50;;;;;;;;;;5033650;28;20442;-78
2021/11/19 06:10:09;;;;;;;14.87;8.83;;;;;;;;;;5032816;28;20464;-79
2021/11/19 06:12:40;;;;;;;13.23;9.37;;;;;;;;;;5035491;28;20469;-79
2021/11/19 06:15:11;;;;;;;12.37;9.80;;;;;;;;;;5019738;28;20480;-80
2021/11/19 06:17:39;;;;;;;14.10;10.77;;;;;;;;;;5031445;28;20474;-79
2021/11/19 06:20:11;;;;;;;13.90;10.90;;;;;;;;;;5012856;28;20458;-79
2021/11/19 06:25:07;;;;;;;16.97;10.13;;;;;;;;;;5015244;28;20461;-80
2021/11/19 06:27:36;;;;;;;14.07;9.93;;;;;;;;;;5011700;28;20195;-80
2021/11/19 06:30:04;;;;;;;13.33;9.00;;;;;;;;;;5020050;28;20799;-79
2021/11/19 06:32:32;;;;;;;15.73;9.80;;;;;;;;;;5031159;28;20486;-78
2021/11/19 06:35:00;;;;;;;15.43;10.10;;;;;;;;;;5011790;28;20446;-79
2021/11/19 06:37:27;;;;;;;12.50;10.50;;;;;;;;;;5014114;28;20485;-80
2021/11/19 06:39:55;;;;;;;15.20;9.87;;;;;;;;;;5012277;28;20464;-78
2021/11/19 06:42:24;;;;;;;13.43;9.77;;;;;;;;;;5029742;28;20496;-82
2021/11/19 06:44:51;;;;;;;12.40;9.60;;;;;;;;;;5032485;28;20446;-78
2021/11/19 06:47:19;;;;;;;17.33;10.67;;;;;;;;;;5029141;28;20454;-78
2021/11/19 06:49:46;;;;;;;14.33;9.90;;;;;;;;;;5030328;28;20458;-79
2021/11/19 06:52:13;;;;;;;14.13;10.50;;;;;;;;;;5018412;28;20993;-78
2021/11/19 06:54:41;;;;;;;12.37;9.80;;;;;;;;;;5035249;28;20450;-76
2021/11/19 06:57:09;;;;;;;12.77;9.30;;;;;;;;;;5026094;28;20974;-79
2021/11/19 06:59:38;;;;;;;16.10;10.30;;;;;;;;;;5009156;28;20449;-77
2021/11/19 07:02:06;;;;;;;13.03;9.03;;;;;;;;;;5033896;28;20482;-80
2021/11/19 07:04:33;;;;;;;16.87;10.43;;;;;;;;;;5027757;28;20544;-79
2021/11/19 07:07:01;;;;;;;14.80;10.13;;;;;;;;;;5033304;28;20446;-78
2021/11/19 07:09:29;;;;;;;11.37;9.03;;;;;;;;;;5021321;28;20533;-79
2021/11/19 07:11:59;;;;;;;13.27;9.13;;;;;;;;;;5035047;28;20465;-83
2021/11/19 07:14:26;;;;;;;10.07;8.50;;;;;;;;;;5041130;28;20508;-79
2021/11/19 07:16:55;;;;;;;11.07;8.63;;;;;;;;;;5043449;28;20447;-78
2021/11/19 07:19:23;;;;;;;12.10;9.53;;;;;;;;;;5035079;28;20441;-77
2021/11/19 07:21:53;;;;;;;14.50;9.70;;;;;;;;;;5021869;28;20991;-77
2021/11/19 07:24:21;;;;;;;14.50;9.80;;;;;;;;;;5017539;28;20944;-78
2021/11/19 07:26:48;;;;;;;10.57;8.60;;;;;;;;;;5036817;28;20591;-77
2021/11/19 07:29:15;;;;;;;11.03;8.60;;;;;;;;;;5040145;28;20445;-77
2021/11/19 07:31:43;;;;;;;11.90;9.93;;;;;;;;;;5030559;28;20478;-77
2021/11/19 07:34:12;;;;;;;11.67;8.77;;;;;;;;;;5041188;28;20430;-77
2021/11/19 07:36:39;;;;;;;12.40;8.80;;;;;;;;;;5031909;28;20442;-77
2021/11/19 07:39:07;;;;;;;11.30;9.00;;;;;;;;;;5014650;28;21151;-78
2021/11/19 07:41:42;;;;;;;11.30;8.47;;;;;;;;;;5028755;28;20479;-77
2021/11/19 07:44:22;;;;;;;9.67;8.67;;;;;;;;;;5009276;28;20442;-77
2021/11/19 07:46:50;;;;;;;8.63;7.63;;;;;;;;;;5008277;28;20446;-77
2021/11/19 07:49:19;;;;;;;10.27;8.53;;;;;;;;;;4997360;28;20458;-78
2021/11/19 07:51:47;;;;;;;10.20;8.80;;;;;;;;;;5002337;28;20494;-77
2021/11/19 07:54:15;;;;;;;11.20;8.90;;;;;;;;;;5001416;28;20439;-77
2021/11/19 07:56:44;;;;;;;11.63;8.20;;;;;;;;;;5009782;28;20439;-77
2021/11/19 07:59:14;;;;;;;11.07;8.70;;;;;;;;;;5009348;28;20443;-77
2021/11/19 08:01:42;;;;;;;11.10;8.27;;;;;;;;;;5004585;28;20486;-77
2021/11/19 08:04:09;;;;;;;11.00;7.90;;;;;;;;;;5022946;28;20484;-79
2021/11/19 08:06:38;;;;;;;9.83;8.83;;;;;;;;;;5039751;28;20445;-77
2021/11/19 08:09:06;;;;;;;10.17;8.00;;;;;;;;;;5013232;28;20463;-78
2021/11/19 08:11:34;;;;;;;11.67;8.40;;;;;;;;;;5031734;28;20461;-76
2021/11/19 08:14:01;;;;;;;10.13;9.00;;;;;;;;;;5032983;28;20449;-79
2021/11/19 08:16:31;;;;;;;10.73;8.50;;;;;;;;;;5018000;28;20445;-77
2021/11/19 08:19:00;;;;;;;12.03;9.40;;;;;;;;;;5037342;28;20469;-80
2021/11/19 08:21:28;;;;;;;12.80;9.27;;;;;;;;;;5037408;28;20469;-81
2021/11/19 08:23:57;;;;;;;9.93;8.57;;;;;;;;;;5015104;28;20508;-80
2021/11/19 08:26:27;;;;;;;12.40;8.10;;;;;;;;;;5032746;28;20460;-80
2021/11/19 08:28:54;;;;;;;10.73;8.77;;;;;;;;;;5014617;28;20879;-83
2021/11/19 08:31:22;;;;;;;10.83;8.70;;;;;;;;;;5027104;28;20482;-83
2021/11/19 08:33:50;;;;;;;10.17;8.43;;;;;;;;;;5022905;28;20429;-79
2021/11/19 08:36:18;;;;;;;9.83;8.60;;;;;;;;;;5018465;28;21516;-80
2021/11/19 08:38:46;;;;;;;12.37;8.23;;;;;;;;;;5021211;28;21010;-79
2021/11/19 08:41:15;;;;;;;11.43;8.90;;;;;;;;;;5017155;28;20982;-78
2021/11/19 08:43:45;;;;;;;13.20;10.20;;;;;;;;;;5032898;28;20488;-80
2021/11/19 08:46:14;;;;;;;12.07;9.00;;;;;;;;;;5013864;28;20469;-81
2021/11/19 08:48:45;;;;;;;13.73;8.93;;;;;;;;;;5038059;28;20836;-78
2021/11/19 08:51:18;;;;;;;9.63;8.17;;;;;;;;;;5041903;28;21091;-79
2021/11/19 08:53:45;;;;;;;12.57;9.63;;;;;;;;;;5052655;28;20468;-81
2021/11/19 08:56:13;;;;;;;13.33;8.80;;;;;;;;;;5033740;28;20536;-79
2021/11/19 08:58:42;;;;;;;13.00;9.20;;;;;;;;;;5032487;28;20450;-79
2021/11/19 09:01:10;;;;;;;11.10;8.40;;;;;;;;;;5032357;28;20484;-80
2021/11/19 09:03:37;;;;;;;9.83;8.30;;;;;;;;;;5027940;28;20473;-81
2021/11/19 09:06:06;;;;;;;11.73;9.20;;;;;;;;;;5036061;28;20549;-78
2021/11/19 09:08:34;;;;;;;14.30;9.27;;;;;;;;;;5032351;28;20446;-80
2021/11/19 09:11:01;;;;;;;10.00;8.07;;;;;;;;;;5051796;28;20472;-79
2021/11/19 09:13:29;;;;;;;12.57;8.27;;;;;;;;;;5031898;28;20971;-79
2021/11/19 09:15:57;;;;;;;12.03;9.10;;;;;;;;;;5031010;28;20774;-79
2021/11/19 09:18:27;;;;;;;14.00;8.67;;;;;;;;;;5029552;28;20550;-78
2021/11/19 09:21:00;;;;;;;10.80;7.50;;;;;;;;;;5017925;28;20467;-78
2021/11/19 09:23:30;;;;;;;10.07;7.40;;;;;;;;;;5025230;28;20473;-78
2021/11/19 09:25:59;;;;;;;10.77;8.33;;;;;;;;;;5015418;28;20442;-77
2021/11/19 09:28:28;;;;;;;12.90;9.53;;;;;;;;;;5030528;28;20861;-79
2021/11/19 09:30:57;;;;;;;11.00;8.77;;;;;;;;;;5030891;28;20446;-78
2021/11/19 09:33:26;;;;;;;15.47;10.10;;;;;;;;;;5039985;28;20465;-80
2021/11/19 09:35:54;;;;;;;12.47;9.10;;;;;;;;;;5020468;28;20455;-78
2021/11/19 09:38:22;;;;;;;9.50;8.37;;;;;;;;;;5018194;28;20477;-78
2021/11/19 09:40:51;;;;;;;10.63;7.70;;;;;;;;;;5013541;28;20450;-79
2021/11/19 09:43:27;;;;;;;9.77;8.10;;;;;;;;;;5013613;28;20485;-78
2021/11/19 09:46:05;;;;;;;9.63;8.37;;;;;;;;;;5018321;28;20455;-80
2021/11/19 09:48:47;;;;;;;8.93;7.40;;;;;;;;;;5016641;28;20806;-79
2021/11/19 09:51:29;;;;;;;11.30;7.20;;;;;;;;;;5014794;28;20824;-79
2021/11/19 09:54:17;;;;;;;13.43;10.60;;;;;;;;;;5039435;28;20792;-81
2021/11/19 09:56:51;;;;;;;11.83;9.83;;;;;;;;;;5030163;28;20446;-81
2021/11/19 09:59:24;;;;;;;17.27;12.53;;;;;;;;;;5013246;28;20942;-80
2021/11/19 10:02:06;;;;;;;16.00;11.40;;;;;;;;;;5030422;28;20462;-83
2021/11/19 10:04:40;;;;;;;16.27;10.97;;;;;;;;;;5026955;28;20989;-80
2021/11/19 10:07:26;;;;;;;13.33;9.80;;;;;;;;;;5034867;28;20460;-79
2021/11/19 10:10:02;;;;;;;16.73;12.83;;;;;;;;;;4997280;28;20470;-82
2021/11/19 10:12:32;;;;;;;14.00;10.50;;;;;;;;;;5019485;28;20556;-78
2021/11/19 10:15:03;;;;;;;13.07;10.60;;;;;;;;;;5038432;28;20433;-81
2021/11/19 10:17:36;;;;;;;15.07;11.57;;;;;;;;;;5032518;28;20462;-81
2021/11/19 10:20:06;;;;;;;17.93;13.73;;;;;;;;;;5030583;28;20473;-81
2021/11/19 10:22:34;;;;;;;15.90;11.73;;;;;;;;;;5014160;28;20466;-79
2021/11/19 10:25:09;;;;;;;15.20;12.13;;;;;;;;;;5014127;28;20489;-80
2021/11/19 10:27:38;;;;;;;13.07;9.20;;;;;;;;;;5026576;28;20445;-79
2021/11/19 10:30:22;;;;;;;15.50;10.23;;;;;;;;;;5032113;28;20466;-79
2021/11/19 10:32:50;;;;;;;15.13;10.47;;;;;;;;;;5013847;28;20800;-80
2021/11/19 10:35:34;;;;;;;13.90;11.00;;;;;;;;;;5020767;28;20461;-80
2021/11/19 10:38:08;;;;;;;16.73;11.27;;;;;;;;;;5020615;28;20447;-79
2021/11/19 10:40:49;;;;;;;19.20;12.23;;;;;;;;;;5047807;28;20511;-79
2021/11/19 10:43:26;;;;;;;18.60;11.40;;;;;;;;;;5012907;28;20516;-80
2021/11/19 10:46:08;;;;;;;14.47;10.30;;;;;;;;;;5031247;28;20525;-80
2021/11/19 10:48:43;;;;;;;14.27;10.20;;;;;;;;;;5029735;28;20517;-80
2021/11/19 10:51:24;;;;;;;13.53;10.00;;;;;;;;;;5038547;28;20774;-80
2021/11/19 10:54:00;;;;;;;22.10;14.20;;;;;;;;;;5015778;28;20864;-80
2021/11/19 10:56:42;;;;;;;18.47;12.90;;;;;;;;;;5010871;28;20454;-78
2021/11/19 10:59:24;;;;;;;17.20;12.40;;;;;;;;;;5010126;28;20465;-77
2021/11/19 11:01:58;;;;;;;19.43;13.60;;;;;;;;;;4991878;28;21026;-80
2021/11/19 11:04:29;;;;;;;15.50;12.43;;;;;;;;;;5005943;28;21002;-79
2021/11/19 11:07:10;;;;;;;12.03;10.60;;;;;;;;;;5018595;28;20442;-80
2021/11/19 11:09:42;;;;;;;10.00;8.50;;;;;;;;;;5026670;28;20446;-81
2021/11/19 11:12:16;;;;;;;12.30;8.40;;;;;;;;;;4992704;28;20494;-82
2021/11/19 11:14:47;;;;;;;9.73;8.73;;;;;;;;;;4989963;28;21016;-79
2021/11/19 11:17:24;;;;;;;9.63;7.90;;;;;;;;;;5006559;28;20953;-78
2021/11/19 11:19:57;;;;;;;12.13;8.30;;;;;;;;;;5025898;28;20474;-78
2021/11/19 11:22:25;;;;;;;13.27;8.60;;;;;;;;;;5018438;28;20462;-80
2021/11/19 11:24:54;;;;;;;10.73;7.17;;;;;;;;;;5028945;28;20962;-79
2021/11/19 11:27:36;;;;;;;10.77;8.07;;;;;;;;;;5030057;28;20452;-79
2021/11/19 11:30:06;;;;;;;9.73;6.83;;;;;;;;;;5018221;28;20687;-79
2021/11/19 11:32:42;;;;;;;10.60;6.43;;;;;;;;;;5009219;28;20497;-77
2021/11/19 11:35:15;;;;;;;11.77;6.93;;;;;;;;;;5014637;28;20438;-78
2021/11/19 11:37:48;;;;;;;15.03;8.07;;;;;;;;;;5017447;28;20932;-81
2021/11/19 11:40:18;;;;;;;9.43;7.60;;;;;;;;;;5005576;28;20891;-79
2021/11/19 11:42:49;;;;;;;9.03;7.37;;;;;;;;;;5016059;28;20494;-79
2021/11/19 11:45:31;;;;;;;9.87;6.70;;;;;;;;;;5009813;28;20486;-80
2021/11/19 11:48:05;;;;;;;9.47;7.13;;;;;;;;;;5013077;28;20458;-80
2021/11/19 11:50:36;;;;;;;8.87;6.53;;;;;;;;;;5017855;28;20991;-79
2021/11/19 11:53:07;;;;;;;9.50;6.97;;;;;;;;;;5037247;28;20469;-77
2021/11/19 11:55:38;;;;;;;10.00;8.53;;;;;;;;;;5035571;28;20507;-80
2021/11/19 11:58:11;;;;;;;10.50;7.20;;;;;;;;;;5015997;28;21131;-80
2021/11/19 12:00:41;;;;;;;10.50;8.30;;;;;;;;;;5015888;28;20844;-79
2021/11/19 12:03:24;;;;;;;8.63;7.30;;;;;;;;;;5010525;28;20466;-80
2021/11/19 12:05:54;;;;;;;11.23;8.90;;;;;;;;;;5023006;28;20445;-79
2021/11/19 12:08:25;;;;;;;14.97;9.40;;;;;;;;;;5050813;28;20460;-80
2021/11/19 12:11:07;;;;;;;11.70;9.30;;;;;;;;;;5029308;28;20461;-77
2021/11/19 12:13:38;;;;;;;12.60;9.10;;;;;;;;;;5018104;28;20449;-80
2021/11/19 12:16:08;;;;;;;12.00;8.90;;;;;;;;;;5015966;28;20450;-80
2021/11/19 12:18:42;;;;;;;14.37;10.10;;;;;;;;;;5002170;28;20834;-80
2021/11/19 12:21:11;;;;;;;12.50;8.83;;;;;;;;;;5021452;28;20472;-81
2021/11/19 12:23:43;;;;;;;11.00;8.70;;;;;;;;;;5016718;28;21015;-82
2021/11/19 12:26:24;;;;;;;11.33;9.10;;;;;;;;;;5032849;28;20777;-80
2021/11/19 12:28:59;;;;;;;11.10;9.00;;;;;;;;;;5033236;28;20808;-79
2021/11/19 12:31:28;;;;;;;15.53;9.90;;;;;;;;;;5032204;28;20497;-79
2021/11/19 12:33:58;;;;;;;11.10;9.60;;;;;;;;;;5030941;28;20458;-81
2021/11/19 12:36:28;;;;;;;13.70;10.23;;;;;;;;;;5041027;28;20437;-80
2021/11/19 12:38:59;;;;;;;12.27;9.37;;;;;;;;;;5029672;28;20444;-80
2021/11/19 12:41:33;;;;;;;12.37;9.80;;;;;;;;;;5051780;28;20461;-79
2021/11/19 12:44:15;;;;;;;11.17;9.30;;;;;;;;;;5045087;28;20480;-80
2021/11/19 12:46:51;;;;;;;11.80;9.17;;;;;;;;;;5017289;28;20447;-79
2021/11/19 12:49:33;;;;;;;12.03;9.80;;;;;;;;;;5017161;28;20441;-79
2021/11/19 12:52:04;;;;;;;12.53;10.00;;;;;;;;;;5032904;28;20556;-80
2021/11/19 12:54:36;;;;;;;13.00;11.10;;;;;;;;;;5015331;28;20871;-79
2021/11/19 12:57:13;;;;;;;11.20;9.53;;;;;;;;;;5031629;28;20446;-81
2021/11/19 12:59:49;;;;;;;11.07;9.57;;;;;;;;;;5032061;28;20445;-80
2021/11/19 13:02:19;;;;;;;13.77;9.70;;;;;;;;;;5005205;28;20471;-79
2021/11/19 13:05:01;;;;;;;14.40;10.53;;;;;;;;;;5012595;28;20487;-79
2021/11/19 13:07:35;;;;;;;14.23;10.50;;;;;;;;;;5014084;28;20439;-81
2021/11/19 13:10:04;;;;;;;12.37;9.73;;;;;;;;;;5014339;28;20443;-80
2021/11/19 13:12:34;;;;;;;13.83;10.30;;;;;;;;;;5034617;28;20469;-79
2021/11/19 13:15:16;;;;;;;13.50;10.80;;;;;;;;;;5025791;28;20806;-81
2021/11/19 13:17:56;;;;;;;11.87;9.70;;;;;;;;;;5036784;28;20449;-81
2021/11/19 13:20:38;;;;;;;11.60;9.77;;;;;;;;;;5012245;28;20450;-79
2021/11/19 13:23:20;;;;;;;12.93;10.83;;;;;;;;;;5012723;28;20488;-80
2021/11/19 13:25:50;;;;;;;11.97;10.00;;;;;;;;;;5032193;28;20527;-80
2021/11/19 13:28:32;;;;;;;12.67;9.53;;;;;;;;;;4997594;28;20882;-80
2021/11/19 13:31:25;;;;;;;13.07;9.00;;;;;;;;;;5016234;28;20465;-79
2021/11/19 13:34:07;;;;;;;14.53;10.60;;;;;;;;;;5016915;28;20965;-79
2021/11/19 13:36:36;;;;;;;17.80;11.73;;;;;;;;;;5023386;28;20438;-79
2021/11/19 13:39:08;;;;;;;14.73;11.07;;;;;;;;;;5031565;28;20447;-82
2021/11/19 13:41:38;;;;;;;12.60;11.10;;;;;;;;;;5030660;28;20466;-82
2021/11/19 13:44:05;;;;;;;15.13;11.90;;;;;;;;;;5030688;28;20446;-82
2021/11/19 13:46:36;;;;;;;13.50;10.37;;;;;;;;;;5031668;28;20442;-80
2021/11/19 13:49:08;;;;;;;12.73;10.27;;;;;;;;;;5031144;28;20454;-80
2021/11/19 13:51:42;;;;;;;15.30;12.13;;;;;;;;;;5021773;28;20462;-79
2021/11/19 13:54:22;;;;;;;16.60;11.00;;;;;;;;;;5029351;28;20444;-80
2021/11/19 13:56:52;;;;;;;13.30;11.00;;;;;;;;;;5050623;28;20445;-77
2021/11/19 13:59:27;;;;;;;14.77;12.30;;;;;;;;;;5051464;28;20472;-80
2021/11/19 14:01:55;;;;;;;15.70;11.10;;;;;;;;;;5012189;28;20458;-80
2021/11/19 14:04:26;;;;;;;15.73;12.27;;;;;;;;;;5029129;28;20487;-80
2021/11/19 14:06:57;;;;;;;14.30;11.50;;;;;;;;;;5039154;28;20449;-80
2021/11/19 14:09:36;;;;;;;13.40;10.63;;;;;;;;;;5028393;28;20452;-80
2021/11/19 14:12:05;;;;;;;16.23;11.60;;;;;;;;;;5051580;28;20825;-81
2021/11/19 14:14:35;;;;;;;15.73;10.83;;;;;;;;;;5034048;28;20437;-79
2021/11/19 14:17:03;;;;;;;15.10;11.50;;;;;;;;;;5015122;28;20486;-80
2021/11/19 14:19:46;;;;;;;16.90;11.23;;;;;;;;;;5025656;28;20492;-81
2021/11/19 14:22:14;;;;;;;15.10;11.40;;;;;;;;;;5039026;28;20821;-81
2021/11/19 14:24:49;;;;;;;13.80;11.40;;;;;;;;;;5035989;28;20474;-81
2021/11/19 14:27:27;;;;;;;13.17;11.43;;;;;;;;;;5030530;28;20445;-79
2021/11/19 14:29:56;;;;;;;13.13;10.93;;;;;;;;;;5013724;28;20450;-80
2021/11/19 14:32:25;;;;;;;16.77;11.17;;;;;;;;;;5010604;28;20489;-79
2021/11/19 14:34:55;;;;;;;14.73;11.70;;;;;;;;;;5014410;28;20532;-81
2021/11/19 14:37:23;;;;;;;16.00;12.87;;;;;;;;;;5017823;28;20461;-78
2021/11/19 14:39:52;;;;;;;13.97;12.10;;;;;;;;;;5021479;28;20438;-78
2021/11/19 14:42:22;;;;;;;15.10;11.87;;;;;;;;;;5015637;28;20482;-80
2021/11/19 14:44:51;;;;;;;14.10;11.90;;;;;;;;;;5011047;28;20482;-81
2021/11/19 14:47:20;;;;;;;15.37;11.40;;;;;;;;;;4993863;28;20485;-80